sensor_id;sensor_type;location;lat;lon;timestamp;P1;durP1;ratioP1;P2;durP2;ratioP2
35909;SDS011;22004;49.120;-0.200;2023-04-06T00:00:53;16.58;;;10.85;;
35909;SDS011;22004;49.120;-0.200;2023-04-06T00:03:19;15.45;;;10.50;;
35909;SDS011;22004;49.120;-0.200;2023-04-06T00:05:44;14.38;;;10.38;;
35909;SDS011;22004;49.120;-0.200;2023-04-06T00:08:11;17.70;;;10.65;;
35909;SDS011;22004;49.120;-0.200;2023-04-06T00:10:37;15.02;;;10.73;;
35909;SDS011;22004;49.120;-0.200;2023-04-06T00:13:02;14.63;;;10.85;;
35909;SDS011;22004;49.120;-0.200;2023-04-06T00:15:27;18.05;;;11.48;;
35909;SDS011;22004;49.120;-0.200;2023-04-06T00:17:53;15.55;;;10.57;;
35909;SDS011;22004;49.120;-0.200;2023-04-06T00:20:18;16.13;;;10.77;;
35909;SDS011;22004;49.120;-0.200;2023-04-06T00:22:44;14.68;;;10.77;;
35909;SDS011;22004;49.120;-0.200;2023-04-06T00:25:10;15.18;;;10.95;;
35909;SDS011;22004;49.120;-0.200;2023-04-06T00:27:36;15.55;;;10.70;;
35909;SDS011;22004;49.120;-0.200;2023-04-06T00:30:03;15.63;;;10.88;;
35909;SDS011;22004;49.120;-0.200;2023-04-06T00:32:29;14.63;;;10.88;;
35909;SDS011;22004;49.120;-0.200;2023-04-06T00:34:55;18.85;;;11.18;;
35909;SDS011;22004;49.120;-0.200;2023-04-06T00:37:21;16.10;;;10.45;;
35909;SDS011;22004;49.120;-0.200;2023-04-06T00:39:46;15.10;;;10.38;;
35909;SDS011;22004;49.120;-0.200;2023-04-06T00:42:12;18.15;;;10.85;;
35909;SDS011;22004;49.120;-0.200;2023-04-06T00:44:40;15.65;;;11.05;;
35909;SDS011;22004;49.120;-0.200;2023-04-06T00:47:06;15.07;;;10.88;;
35909;SDS011;22004;49.120;-0.200;2023-04-06T00:49:33;16.45;;;10.57;;
35909;SDS011;22004;49.120;-0.200;2023-04-06T00:51:59;16.35;;;10.60;;
35909;SDS011;22004;49.120;-0.200;2023-04-06T00:54:26;14.73;;;10.23;;
35909;SDS011;22004;49.120;-0.200;2023-04-06T00:56:52;15.80;;;10.75;;
35909;SDS011;22004;49.120;-0.200;2023-04-06T00:59:17;14.60;;;11.23;;
35909;SDS011;22004;49.120;-0.200;2023-04-06T01:01:43;15.40;;;10.45;;
35909;SDS011;22004;49.120;-0.200;2023-04-06T01:04:08;14.45;;;10.13;;
35909;SDS011;22004;49.120;-0.200;2023-04-06T01:06:34;16.00;;;11.23;;
35909;SDS011;22004;49.120;-0.200;2023-04-06T01:09:00;16.40;;;11.45;;
35909;SDS011;22004;49.120;-0.200;2023-04-06T01:11:25;16.40;;;11.18;;
35909;SDS011;22004;49.120;-0.200;2023-04-06T01:13:51;18.65;;;11.98;;
35909;SDS011;22004;49.120;-0.200;2023-04-06T01:16:17;16.73;;;12.00;;
35909;SDS011;22004;49.120;-0.200;2023-04-06T01:18:42;17.55;;;11.68;;
35909;SDS011;22004;49.120;-0.200;2023-04-06T01:21:08;15.43;;;10.77;;
35909;SDS011;22004;49.120;-0.200;2023-04-06T01:23:40;17.40;;;11.88;;
35909;SDS011;22004;49.120;-0.200;2023-04-06T01:26:07;15.90;;;11.02;;
35909;SDS011;22004;49.120;-0.200;2023-04-06T01:28:32;16.17;;;11.25;;
35909;SDS011;22004;49.120;-0.200;2023-04-06T01:30:58;16.98;;;11.75;;
35909;SDS011;22004;49.120;-0.200;2023-04-06T01:33:23;21.70;;;11.40;;
35909;SDS011;22004;49.120;-0.200;2023-04-06T01:35:49;19.15;;;12.45;;
35909;SDS011;22004;49.120;-0.200;2023-04-06T01:38:14;15.23;;;11.88;;
35909;SDS011;22004;49.120;-0.200;2023-04-06T01:40:40;16.70;;;11.82;;
35909;SDS011;22004;49.120;-0.200;2023-04-06T01:43:05;17.55;;;11.80;;
35909;SDS011;22004;49.120;-0.200;2023-04-06T01:45:31;18.17;;;11.18;;
35909;SDS011;22004;49.120;-0.200;2023-04-06T01:47:56;16.25;;;11.57;;
35909;SDS011;22004;49.120;-0.200;2023-04-06T01:50:22;17.02;;;11.63;;
35909;SDS011;22004;49.120;-0.200;2023-04-06T01:52:48;18.20;;;12.40;;
35909;SDS011;22004;49.120;-0.200;2023-04-06T01:55:13;22.48;;;13.90;;
35909;SDS011;22004;49.120;-0.200;2023-04-06T01:57:38;16.95;;;12.30;;
35909;SDS011;22004;49.120;-0.200;2023-04-06T02:00:04;18.83;;;12.50;;
35909;SDS011;22004;49.120;-0.200;2023-04-06T02:02:30;21.02;;;14.88;;
35909;SDS011;22004;49.120;-0.200;2023-04-06T02:04:55;17.77;;;12.02;;
35909;SDS011;22004;49.120;-0.200;2023-04-06T02:07:21;17.63;;;12.40;;
35909;SDS011;22004;49.120;-0.200;2023-04-06T02:09:46;23.10;;;13.93;;
35909;SDS011;22004;49.120;-0.200;2023-04-06T02:12:12;16.25;;;11.50;;
35909;SDS011;22004;49.120;-0.200;2023-04-06T02:14:37;17.92;;;12.73;;
35909;SDS011;22004;49.120;-0.200;2023-04-06T02:17:02;18.85;;;12.40;;
35909;SDS011;22004;49.120;-0.200;2023-04-06T02:19:28;18.92;;;13.10;;
35909;SDS011;22004;49.120;-0.200;2023-04-06T02:21:53;19.98;;;12.77;;
35909;SDS011;22004;49.120;-0.200;2023-04-06T02:24:19;19.63;;;12.52;;
35909;SDS011;22004;49.120;-0.200;2023-04-06T02:26:44;18.45;;;12.48;;
35909;SDS011;22004;49.120;-0.200;2023-04-06T02:29:10;18.33;;;12.48;;
35909;SDS011;22004;49.120;-0.200;2023-04-06T02:31:35;15.75;;;11.45;;
35909;SDS011;22004;49.120;-0.200;2023-04-06T02:34:01;17.10;;;13.15;;
35909;SDS011;22004;49.120;-0.200;2023-04-06T02:36:26;17.52;;;12.60;;
35909;SDS011;22004;49.120;-0.200;2023-04-06T02:38:52;17.13;;;11.40;;
35909;SDS011;22004;49.120;-0.200;2023-04-06T02:41:17;18.73;;;11.65;;
35909;SDS011;22004;49.120;-0.200;2023-04-06T02:43:42;16.35;;;11.65;;
35909;SDS011;22004;49.120;-0.200;2023-04-06T02:46:08;18.33;;;12.32;;
35909;SDS011;22004;49.120;-0.200;2023-04-06T02:48:33;15.70;;;11.13;;
35909;SDS011;22004;49.120;-0.200;2023-04-06T02:51:01;17.50;;;10.88;;
35909;SDS011;22004;49.120;-0.200;2023-04-06T02:53:26;16.15;;;11.50;;
35909;SDS011;22004;49.120;-0.200;2023-04-06T02:55:52;15.93;;;10.82;;
35909;SDS011;22004;49.120;-0.200;2023-04-06T02:58:18;15.50;;;10.57;;
35909;SDS011;22004;49.120;-0.200;2023-04-06T03:00:43;17.55;;;10.82;;
35909;SDS011;22004;49.120;-0.200;2023-04-06T03:03:09;13.85;;;10.43;;
35909;SDS011;22004;49.120;-0.200;2023-04-06T03:05:34;17.52;;;10.13;;
35909;SDS011;22004;49.120;-0.200;2023-04-06T03:07:59;18.52;;;9.77;;
35909;SDS011;22004;49.120;-0.200;2023-04-06T03:10:25;14.70;;;10.10;;
35909;SDS011;22004;49.120;-0.200;2023-04-06T03:12:50;15.07;;;10.70;;
35909;SDS011;22004;49.120;-0.200;2023-04-06T03:15:15;14.13;;;10.40;;
35909;SDS011;22004;49.120;-0.200;2023-04-06T03:17:41;13.13;;;9.45;;
35909;SDS011;22004;49.120;-0.200;2023-04-06T03:20:06;14.60;;;10.57;;
35909;SDS011;22004;49.120;-0.200;2023-04-06T03:22:32;13.55;;;9.95;;
35909;SDS011;22004;49.120;-0.200;2023-04-06T03:24:57;15.82;;;10.75;;
35909;SDS011;22004;49.120;-0.200;2023-04-06T03:27:23;12.30;;;9.27;;
35909;SDS011;22004;49.120;-0.200;2023-04-06T03:29:48;13.18;;;9.52;;
35909;SDS011;22004;49.120;-0.200;2023-04-06T03:32:14;12.50;;;9.20;;
35909;SDS011;22004;49.120;-0.200;2023-04-06T03:34:39;12.02;;;9.15;;
35909;SDS011;22004;49.120;-0.200;2023-04-06T03:37:04;12.48;;;9.50;;
35909;SDS011;22004;49.120;-0.200;2023-04-06T03:39:30;12.52;;;8.73;;
35909;SDS011;22004;49.120;-0.200;2023-04-06T03:41:55;12.80;;;9.15;;
35909;SDS011;22004;49.120;-0.200;2023-04-06T03:44:21;14.48;;;9.10;;
35909;SDS011;22004;49.120;-0.200;2023-04-06T03:46:46;13.55;;;9.40;;
35909;SDS011;22004;49.120;-0.200;2023-04-06T03:49:11;12.95;;;9.05;;
35909;SDS011;22004;49.120;-0.200;2023-04-06T03:51:37;13.90;;;8.73;;
35909;SDS011;22004;49.120;-0.200;2023-04-06T03:54:03;15.10;;;11.02;;
35909;SDS011;22004;49.120;-0.200;2023-04-06T03:56:28;11.85;;;8.73;;
35909;SDS011;22004;49.120;-0.200;2023-04-06T03:58:53;11.73;;;8.10;;
35909;SDS011;22004;49.120;-0.200;2023-04-06T04:01:19;11.80;;;8.52;;
35909;SDS011;22004;49.120;-0.200;2023-04-06T04:03:45;13.93;;;7.97;;
35909;SDS011;22004;49.120;-0.200;2023-04-06T04:06:10;13.30;;;8.90;;
35909;SDS011;22004;49.120;-0.200;2023-04-06T04:08:35;11.48;;;8.63;;
35909;SDS011;22004;49.120;-0.200;2023-04-06T04:11:01;10.73;;;8.15;;
35909;SDS011;22004;49.120;-0.200;2023-04-06T04:13:26;12.32;;;8.88;;
35909;SDS011;22004;49.120;-0.200;2023-04-06T04:15:52;12.27;;;8.57;;
35909;SDS011;22004;49.120;-0.200;2023-04-06T04:18:18;13.38;;;9.45;;
35909;SDS011;22004;49.120;-0.200;2023-04-06T04:20:43;10.85;;;8.15;;
35909;SDS011;22004;49.120;-0.200;2023-04-06T04:23:09;11.02;;;7.78;;
35909;SDS011;22004;49.120;-0.200;2023-04-06T04:25:35;11.07;;;8.23;;
35909;SDS011;22004;49.120;-0.200;2023-04-06T04:28:00;11.05;;;8.32;;
35909;SDS011;22004;49.120;-0.200;2023-04-06T04:30:26;10.68;;;8.20;;
35909;SDS011;22004;49.120;-0.200;2023-04-06T04:32:51;13.13;;;8.75;;
35909;SDS011;22004;49.120;-0.200;2023-04-06T04:35:17;11.07;;;7.95;;
35909;SDS011;22004;49.120;-0.200;2023-04-06T04:37:42;14.82;;;9.35;;
35909;SDS011;22004;49.120;-0.200;2023-04-06T04:40:08;11.63;;;8.70;;
35909;SDS011;22004;49.120;-0.200;2023-04-06T04:42:34;11.07;;;8.15;;
35909;SDS011;22004;49.120;-0.200;2023-04-06T04:44:59;11.77;;;8.10;;
35909;SDS011;22004;49.120;-0.200;2023-04-06T04:47:25;12.05;;;8.27;;
35909;SDS011;22004;49.120;-0.200;2023-04-06T04:49:50;13.93;;;8.68;;
35909;SDS011;22004;49.120;-0.200;2023-04-06T04:52:15;10.68;;;7.55;;
35909;SDS011;22004;49.120;-0.200;2023-04-06T04:54:41;10.68;;;7.93;;
35909;SDS011;22004;49.120;-0.200;2023-04-06T04:57:06;10.82;;;8.13;;
35909;SDS011;22004;49.120;-0.200;2023-04-06T04:59:32;11.82;;;7.97;;
35909;SDS011;22004;49.120;-0.200;2023-04-06T05:01:58;11.55;;;8.13;;
35909;SDS011;22004;49.120;-0.200;2023-04-06T05:04:24;10.00;;;7.63;;
35909;SDS011;22004;49.120;-0.200;2023-04-06T05:06:49;10.40;;;8.07;;
35909;SDS011;22004;49.120;-0.200;2023-04-06T05:09:15;10.52;;;7.75;;
35909;SDS011;22004;49.120;-0.200;2023-04-06T05:11:40;10.80;;;7.28;;
35909;SDS011;22004;49.120;-0.200;2023-04-06T05:14:06;10.63;;;7.80;;
35909;SDS011;22004;49.120;-0.200;2023-04-06T05:16:32;10.52;;;6.90;;
35909;SDS011;22004;49.120;-0.200;2023-04-06T05:18:58;9.55;;;6.95;;
35909;SDS011;22004;49.120;-0.200;2023-04-06T05:21:24;11.52;;;6.82;;
35909;SDS011;22004;49.120;-0.200;2023-04-06T05:23:51;11.95;;;7.50;;
35909;SDS011;22004;49.120;-0.200;2023-04-06T05:26:16;14.23;;;6.65;;
35909;SDS011;22004;49.120;-0.200;2023-04-06T05:28:41;7.45;;;5.93;;
35909;SDS011;22004;49.120;-0.200;2023-04-06T05:31:09;9.75;;;6.90;;
35909;SDS011;22004;49.120;-0.200;2023-04-06T05:33:34;9.43;;;6.43;;
35909;SDS011;22004;49.120;-0.200;2023-04-06T05:36:00;8.30;;;6.50;;
35909;SDS011;22004;49.120;-0.200;2023-04-06T05:38:25;9.10;;;6.50;;
35909;SDS011;22004;49.120;-0.200;2023-04-06T05:40:51;10.85;;;6.60;;
35909;SDS011;22004;49.120;-0.200;2023-04-06T05:43:16;8.77;;;6.38;;
35909;SDS011;22004;49.120;-0.200;2023-04-06T05:45:43;8.18;;;6.32;;
35909;SDS011;22004;49.120;-0.200;2023-04-06T05:48:09;16.75;;;6.20;;
35909;SDS011;22004;49.120;-0.200;2023-04-06T05:50:35;9.45;;;5.72;;
35909;SDS011;22004;49.120;-0.200;2023-04-06T05:53:00;10.23;;;6.22;;
35909;SDS011;22004;49.120;-0.200;2023-04-06T05:55:26;8.45;;;6.38;;
35909;SDS011;22004;49.120;-0.200;2023-04-06T05:57:52;8.88;;;6.07;;
35909;SDS011;22004;49.120;-0.200;2023-04-06T06:00:18;11.15;;;6.32;;
35909;SDS011;22004;49.120;-0.200;2023-04-06T06:02:44;9.68;;;6.20;;
35909;SDS011;22004;49.120;-0.200;2023-04-06T06:05:10;6.95;;;5.68;;
35909;SDS011;22004;49.120;-0.200;2023-04-06T06:07:35;9.50;;;6.60;;
35909;SDS011;22004;49.120;-0.200;2023-04-06T06:10:01;8.57;;;5.25;;
35909;SDS011;22004;49.120;-0.200;2023-04-06T06:12:26;8.05;;;6.05;;
35909;SDS011;22004;49.120;-0.200;2023-04-06T06:14:52;8.05;;;5.78;;
35909;SDS011;22004;49.120;-0.200;2023-04-06T06:17:17;8.52;;;5.40;;
35909;SDS011;22004;49.120;-0.200;2023-04-06T06:19:43;12.35;;;6.25;;
35909;SDS011;22004;49.120;-0.200;2023-04-06T06:22:08;7.60;;;5.50;;
35909;SDS011;22004;49.120;-0.200;2023-04-06T06:24:34;6.47;;;5.07;;
35909;SDS011;22004;49.120;-0.200;2023-04-06T06:27:00;8.90;;;5.00;;
35909;SDS011;22004;49.120;-0.200;2023-04-06T06:29:25;10.38;;;5.70;;
35909;SDS011;22004;49.120;-0.200;2023-04-06T06:31:50;6.28;;;4.90;;
35909;SDS011;22004;49.120;-0.200;2023-04-06T06:34:16;8.75;;;5.40;;
35909;SDS011;22004;49.120;-0.200;2023-04-06T06:36:41;9.05;;;5.00;;
35909;SDS011;22004;49.120;-0.200;2023-04-06T06:39:07;8.90;;;6.55;;
35909;SDS011;22004;49.120;-0.200;2023-04-06T06:41:32;6.90;;;4.93;;
35909;SDS011;22004;49.120;-0.200;2023-04-06T06:43:57;9.98;;;4.88;;
35909;SDS011;22004;49.120;-0.200;2023-04-06T06:46:23;7.72;;;5.32;;
35909;SDS011;22004;49.120;-0.200;2023-04-06T06:48:48;6.57;;;5.10;;
35909;SDS011;22004;49.120;-0.200;2023-04-06T06:51:14;8.48;;;5.53;;
35909;SDS011;22004;49.120;-0.200;2023-04-06T06:53:39;6.30;;;4.60;;
35909;SDS011;22004;49.120;-0.200;2023-04-06T06:56:05;6.90;;;4.80;;
35909;SDS011;22004;49.120;-0.200;2023-04-06T06:58:30;5.50;;;4.70;;
35909;SDS011;22004;49.120;-0.200;2023-04-06T07:00:57;6.80;;;5.18;;
35909;SDS011;22004;49.120;-0.200;2023-04-06T07:03:23;6.10;;;4.95;;
35909;SDS011;22004;49.120;-0.200;2023-04-06T07:05:49;6.47;;;4.45;;
35909;SDS011;22004;49.120;-0.200;2023-04-06T07:08:18;8.00;;;4.75;;
35909;SDS011;22004;49.120;-0.200;2023-04-06T07:10:44;7.57;;;4.80;;
35909;SDS011;22004;49.120;-0.200;2023-04-06T07:13:10;7.82;;;5.50;;
35909;SDS011;22004;49.120;-0.200;2023-04-06T07:15:36;6.72;;;4.78;;
35909;SDS011;22004;49.120;-0.200;2023-04-06T07:18:02;10.27;;;4.22;;
35909;SDS011;22004;49.120;-0.200;2023-04-06T07:20:27;6.85;;;4.93;;
35909;SDS011;22004;49.120;-0.200;2023-04-06T07:22:53;5.63;;;4.25;;
35909;SDS011;22004;49.120;-0.200;2023-04-06T07:25:18;5.65;;;4.50;;
35909;SDS011;22004;49.120;-0.200;2023-04-06T07:27:44;5.70;;;4.47;;
35909;SDS011;22004;49.120;-0.200;2023-04-06T07:30:09;6.43;;;4.30;;
35909;SDS011;22004;49.120;-0.200;2023-04-06T07:32:35;7.45;;;4.65;;
35909;SDS011;22004;49.120;-0.200;2023-04-06T07:35:01;6.13;;;4.68;;
35909;SDS011;22004;49.120;-0.200;2023-04-06T07:37:27;8.70;;;4.90;;
35909;SDS011;22004;49.120;-0.200;2023-04-06T07:39:52;6.38;;;4.53;;
35909;SDS011;22004;49.120;-0.200;2023-04-06T07:42:17;5.10;;;3.90;;
35909;SDS011;22004;49.120;-0.200;2023-04-06T07:44:43;7.68;;;4.07;;
35909;SDS011;22004;49.120;-0.200;2023-04-06T07:47:08;8.05;;;4.35;;
35909;SDS011;22004;49.120;-0.200;2023-04-06T07:49:34;12.30;;;4.88;;
35909;SDS011;22004;49.120;-0.200;2023-04-06T07:51:59;4.22;;;3.53;;
35909;SDS011;22004;49.120;-0.200;2023-04-06T07:54:27;5.55;;;3.58;;
35909;SDS011;22004;49.120;-0.200;2023-04-06T07:56:53;7.15;;;3.85;;
35909;SDS011;22004;49.120;-0.200;2023-04-06T07:59:18;6.78;;;4.38;;
35909;SDS011;22004;49.120;-0.200;2023-04-06T08:01:43;6.70;;;4.57;;
35909;SDS011;22004;49.120;-0.200;2023-04-06T08:04:09;6.32;;;4.13;;
35909;SDS011;22004;49.120;-0.200;2023-04-06T08:06:34;5.00;;;3.65;;
35909;SDS011;22004;49.120;-0.200;2023-04-06T08:09:01;7.30;;;4.03;;
35909;SDS011;22004;49.120;-0.200;2023-04-06T08:11:27;9.93;;;3.97;;
35909;SDS011;22004;49.120;-0.200;2023-04-06T08:13:52;11.00;;;3.88;;
35909;SDS011;22004;49.120;-0.200;2023-04-06T08:16:18;6.55;;;3.38;;
35909;SDS011;22004;49.120;-0.200;2023-04-06T08:18:44;9.10;;;4.22;;
35909;SDS011;22004;49.120;-0.200;2023-04-06T08:21:09;11.50;;;3.92;;
35909;SDS011;22004;49.120;-0.200;2023-04-06T08:23:35;10.70;;;4.28;;
35909;SDS011;22004;49.120;-0.200;2023-04-06T08:26:00;11.30;;;3.97;;
35909;SDS011;22004;49.120;-0.200;2023-04-06T08:28:25;9.60;;;3.85;;
35909;SDS011;22004;49.120;-0.200;2023-04-06T08:30:51;7.40;;;4.35;;
35909;SDS011;22004;49.120;-0.200;2023-04-06T08:33:16;7.97;;;3.75;;
35909;SDS011;22004;49.120;-0.200;2023-04-06T08:35:42;7.10;;;3.50;;
35909;SDS011;22004;49.120;-0.200;2023-04-06T08:38:07;10.75;;;3.65;;
35909;SDS011;22004;49.120;-0.200;2023-04-06T08:40:36;7.85;;;3.78;;
35909;SDS011;22004;49.120;-0.200;2023-04-06T08:43:02;10.85;;;3.63;;
35909;SDS011;22004;49.120;-0.200;2023-04-06T08:45:33;10.52;;;4.15;;
35909;SDS011;22004;49.120;-0.200;2023-04-06T08:47:59;10.98;;;3.78;;
35909;SDS011;22004;49.120;-0.200;2023-04-06T08:50:26;10.80;;;3.67;;
35909;SDS011;22004;49.120;-0.200;2023-04-06T08:52:54;11.82;;;3.88;;
35909;SDS011;22004;49.120;-0.200;2023-04-06T08:55:20;8.75;;;3.63;;
35909;SDS011;22004;49.120;-0.200;2023-04-06T08:57:47;6.80;;;2.78;;
35909;SDS011;22004;49.120;-0.200;2023-04-06T09:00:13;5.97;;;3.10;;
35909;SDS011;22004;49.120;-0.200;2023-04-06T09:02:39;12.93;;;3.72;;
35909;SDS011;22004;49.120;-0.200;2023-04-06T09:05:08;11.48;;;3.50;;
35909;SDS011;22004;49.120;-0.200;2023-04-06T09:07:37;10.90;;;3.00;;
35909;SDS011;22004;49.120;-0.200;2023-04-06T09:10:06;16.25;;;3.33;;
35909;SDS011;22004;49.120;-0.200;2023-04-06T09:12:32;12.85;;;2.83;;
35909;SDS011;22004;49.120;-0.200;2023-04-06T09:14:58;16.73;;;3.10;;
35909;SDS011;22004;49.120;-0.200;2023-04-06T09:17:26;11.77;;;2.83;;
35909;SDS011;22004;49.120;-0.200;2023-04-06T09:19:57;8.88;;;2.67;;
35909;SDS011;22004;49.120;-0.200;2023-04-06T09:22:24;10.98;;;2.28;;
35909;SDS011;22004;49.120;-0.200;2023-04-06T09:24:53;14.15;;;2.47;;
35909;SDS011;22004;49.120;-0.200;2023-04-06T09:27:35;16.98;;;2.70;;
35909;SDS011;22004;49.120;-0.200;2023-04-06T09:30:05;14.35;;;3.28;;
35909;SDS011;22004;49.120;-0.200;2023-04-06T09:32:32;8.48;;;2.05;;
35909;SDS011;22004;49.120;-0.200;2023-04-06T09:35:08;15.60;;;2.63;;
35909;SDS011;22004;49.120;-0.200;2023-04-06T09:37:34;10.23;;;2.33;;
35909;SDS011;22004;49.120;-0.200;2023-04-06T09:40:06;8.07;;;2.10;;
35909;SDS011;22004;49.120;-0.200;2023-04-06T09:42:33;12.30;;;2.80;;
35909;SDS011;22004;49.120;-0.200;2023-04-06T09:45:00;9.63;;;2.00;;
35909;SDS011;22004;49.120;-0.200;2023-04-06T09:47:26;8.63;;;2.10;;
35909;SDS011;22004;49.120;-0.200;2023-04-06T09:49:55;12.38;;;2.42;;
35909;SDS011;22004;49.120;-0.200;2023-04-06T09:52:27;10.43;;;2.00;;
35909;SDS011;22004;49.120;-0.200;2023-04-06T09:55:03;12.50;;;2.03;;
35909;SDS011;22004;49.120;-0.200;2023-04-06T10:00:40;15.07;;;2.63;;
35909;SDS011;22004;49.120;-0.200;2023-04-06T10:03:43;10.50;;;2.13;;
35909;SDS011;22004;49.120;-0.200;2023-04-06T10:06:13;10.68;;;2.30;;
35909;SDS011;22004;49.120;-0.200;2023-04-06T10:08:42;10.65;;;2.40;;
35909;SDS011;22004;49.120;-0.200;2023-04-06T10:11:10;15.35;;;3.03;;
35909;SDS011;22004;49.120;-0.200;2023-04-06T10:13:37;7.53;;;2.10;;
35909;SDS011;22004;49.120;-0.200;2023-04-06T10:16:02;10.77;;;2.50;;
35909;SDS011;22004;49.120;-0.200;2023-04-06T10:18:29;16.95;;;2.47;;
35909;SDS011;22004;49.120;-0.200;2023-04-06T10:21:04;11.50;;;2.15;;
35909;SDS011;22004;49.120;-0.200;2023-04-06T10:26:22;12.67;;;2.57;;
35909;SDS011;22004;49.120;-0.200;2023-04-06T10:28:47;15.48;;;2.47;;
35909;SDS011;22004;49.120;-0.200;2023-04-06T10:31:14;13.35;;;2.15;;
35909;SDS011;22004;49.120;-0.200;2023-04-06T10:33:40;15.07;;;2.17;;
35909;SDS011;22004;49.120;-0.200;2023-04-06T10:36:09;9.70;;;2.05;;
35909;SDS011;22004;49.120;-0.200;2023-04-06T10:38:39;9.88;;;1.77;;
35909;SDS011;22004;49.120;-0.200;2023-04-06T10:41:06;10.70;;;2.30;;
35909;SDS011;22004;49.120;-0.200;2023-04-06T10:43:34;10.13;;;1.92;;
35909;SDS011;22004;49.120;-0.200;2023-04-06T10:46:01;12.57;;;2.50;;
35909;SDS011;22004;49.120;-0.200;2023-04-06T10:48:38;11.30;;;1.95;;
35909;SDS011;22004;49.120;-0.200;2023-04-06T10:51:11;11.23;;;2.35;;
35909;SDS011;22004;49.120;-0.200;2023-04-06T10:53:38;11.85;;;1.65;;
35909;SDS011;22004;49.120;-0.200;2023-04-06T10:56:15;10.88;;;2.63;;
35909;SDS011;22004;49.120;-0.200;2023-04-06T10:58:45;11.82;;;2.03;;
35909;SDS011;22004;49.120;-0.200;2023-04-06T11:01:11;11.00;;;2.15;;
35909;SDS011;22004;49.120;-0.200;2023-04-06T11:03:42;13.25;;;2.20;;
35909;SDS011;22004;49.120;-0.200;2023-04-06T11:06:17;14.32;;;2.25;;
35909;SDS011;22004;49.120;-0.200;2023-04-06T11:08:46;9.43;;;2.15;;
35909;SDS011;22004;49.120;-0.200;2023-04-06T11:11:13;12.98;;;2.45;;
35909;SDS011;22004;49.120;-0.200;2023-04-06T11:16:15;14.13;;;2.28;;
35909;SDS011;22004;49.120;-0.200;2023-04-06T11:21:16;10.68;;;2.15;;
35909;SDS011;22004;49.120;-0.200;2023-04-06T11:23:42;13.48;;;1.88;;
35909;SDS011;22004;49.120;-0.200;2023-04-06T11:26:11;13.40;;;2.33;;
35909;SDS011;22004;49.120;-0.200;2023-04-06T11:28:37;12.10;;;2.58;;
35909;SDS011;22004;49.120;-0.200;2023-04-06T11:31:05;8.95;;;2.65;;
35909;SDS011;22004;49.120;-0.200;2023-04-06T11:33:34;14.40;;;2.35;;
35909;SDS011;22004;49.120;-0.200;2023-04-06T11:36:01;15.02;;;3.00;;
35909;SDS011;22004;49.120;-0.200;2023-04-06T11:38:26;14.52;;;2.60;;
35909;SDS011;22004;49.120;-0.200;2023-04-06T11:40:52;13.90;;;2.45;;
35909;SDS011;22004;49.120;-0.200;2023-04-06T11:43:25;13.75;;;2.03;;
35909;SDS011;22004;49.120;-0.200;2023-04-06T11:46:02;10.55;;;1.75;;
35909;SDS011;22004;49.120;-0.200;2023-04-06T11:48:28;16.65;;;2.53;;
35909;SDS011;22004;49.120;-0.200;2023-04-06T11:50:57;11.50;;;2.05;;
35909;SDS011;22004;49.120;-0.200;2023-04-06T11:53:26;11.93;;;2.15;;
35909;SDS011;22004;49.120;-0.200;2023-04-06T11:55:52;9.93;;;1.98;;
35909;SDS011;22004;49.120;-0.200;2023-04-06T11:58:18;14.73;;;2.75;;
35909;SDS011;22004;49.120;-0.200;2023-04-06T12:00:43;13.20;;;2.15;;
35909;SDS011;22004;49.120;-0.200;2023-04-06T12:03:13;16.40;;;2.63;;
35909;SDS011;22004;49.120;-0.200;2023-04-06T12:05:39;13.95;;;2.45;;
35909;SDS011;22004;49.120;-0.200;2023-04-06T12:08:04;12.20;;;2.42;;
35909;SDS011;22004;49.120;-0.200;2023-04-06T12:10:30;14.55;;;2.10;;
35909;SDS011;22004;49.120;-0.200;2023-04-06T12:12:55;11.05;;;2.40;;
35909;SDS011;22004;49.120;-0.200;2023-04-06T12:15:21;10.63;;;2.05;;
35909;SDS011;22004;49.120;-0.200;2023-04-06T12:17:46;9.30;;;1.83;;
35909;SDS011;22004;49.120;-0.200;2023-04-06T12:20:12;11.05;;;2.30;;
35909;SDS011;22004;49.120;-0.200;2023-04-06T12:22:38;12.05;;;2.40;;
35909;SDS011;22004;49.120;-0.200;2023-04-06T12:25:04;18.67;;;2.58;;
35909;SDS011;22004;49.120;-0.200;2023-04-06T12:27:31;12.15;;;2.22;;
35909;SDS011;22004;49.120;-0.200;2023-04-06T12:29:57;9.00;;;1.88;;
35909;SDS011;22004;49.120;-0.200;2023-04-06T12:32:22;12.60;;;2.17;;
35909;SDS011;22004;49.120;-0.200;2023-04-06T12:34:47;12.32;;;2.13;;
35909;SDS011;22004;49.120;-0.200;2023-04-06T12:37:13;10.35;;;2.00;;
35909;SDS011;22004;49.120;-0.200;2023-04-06T12:39:38;8.02;;;2.03;;
35909;SDS011;22004;49.120;-0.200;2023-04-06T12:42:04;10.02;;;2.00;;
35909;SDS011;22004;49.120;-0.200;2023-04-06T12:44:30;10.10;;;1.85;;
35909;SDS011;22004;49.120;-0.200;2023-04-06T12:46:55;7.18;;;1.60;;
35909;SDS011;22004;49.120;-0.200;2023-04-06T12:49:21;11.95;;;2.97;;
35909;SDS011;22004;49.120;-0.200;2023-04-06T12:51:46;12.82;;;2.20;;
35909;SDS011;22004;49.120;-0.200;2023-04-06T12:54:12;8.50;;;2.10;;
35909;SDS011;22004;49.120;-0.200;2023-04-06T12:56:38;9.77;;;1.73;;
35909;SDS011;22004;49.120;-0.200;2023-04-06T12:59:03;13.32;;;1.88;;
35909;SDS011;22004;49.120;-0.200;2023-04-06T13:01:28;9.95;;;1.88;;
35909;SDS011;22004;49.120;-0.200;2023-04-06T13:03:55;7.60;;;1.92;;
35909;SDS011;22004;49.120;-0.200;2023-04-06T13:06:21;9.95;;;1.85;;
35909;SDS011;22004;49.120;-0.200;2023-04-06T13:08:46;8.57;;;2.65;;
35909;SDS011;22004;49.120;-0.200;2023-04-06T13:11:14;12.00;;;1.85;;
35909;SDS011;22004;49.120;-0.200;2023-04-06T13:13:40;14.80;;;2.38;;
35909;SDS011;22004;49.120;-0.200;2023-04-06T13:16:09;14.80;;;2.15;;
35909;SDS011;22004;49.120;-0.200;2023-04-06T13:18:34;10.70;;;1.67;;
35909;SDS011;22004;49.120;-0.200;2023-04-06T13:21:02;11.15;;;1.92;;
35909;SDS011;22004;49.120;-0.200;2023-04-06T13:23:27;13.80;;;2.45;;
35909;SDS011;22004;49.120;-0.200;2023-04-06T13:26:06;8.57;;;1.50;;
35909;SDS011;22004;49.120;-0.200;2023-04-06T13:28:32;9.73;;;1.73;;
35909;SDS011;22004;49.120;-0.200;2023-04-06T13:30:59;10.52;;;1.90;;
35909;SDS011;22004;49.120;-0.200;2023-04-06T13:33:26;10.48;;;1.83;;
35909;SDS011;22004;49.120;-0.200;2023-04-06T13:35:52;10.75;;;2.05;;
35909;SDS011;22004;49.120;-0.200;2023-04-06T13:38:17;14.73;;;2.40;;
35909;SDS011;22004;49.120;-0.200;2023-04-06T13:40:43;11.05;;;1.90;;
35909;SDS011;22004;49.120;-0.200;2023-04-06T13:43:09;10.80;;;2.25;;
35909;SDS011;22004;49.120;-0.200;2023-04-06T13:45:35;11.88;;;2.10;;
35909;SDS011;22004;49.120;-0.200;2023-04-06T13:48:00;9.85;;;1.80;;
35909;SDS011;22004;49.120;-0.200;2023-04-06T13:50:26;7.85;;;1.70;;
35909;SDS011;22004;49.120;-0.200;2023-04-06T13:52:52;12.13;;;1.95;;
35909;SDS011;22004;49.120;-0.200;2023-04-06T13:55:17;5.68;;;1.38;;
35909;SDS011;22004;49.120;-0.200;2023-04-06T13:57:42;7.40;;;1.45;;
35909;SDS011;22004;49.120;-0.200;2023-04-06T14:00:08;4.40;;;1.13;;
35909;SDS011;22004;49.120;-0.200;2023-04-06T14:02:35;10.40;;;1.85;;
35909;SDS011;22004;49.120;-0.200;2023-04-06T14:05:00;10.65;;;1.52;;
35909;SDS011;22004;49.120;-0.200;2023-04-06T14:07:26;6.88;;;1.63;;
35909;SDS011;22004;49.120;-0.200;2023-04-06T14:09:51;8.07;;;1.63;;
35909;SDS011;22004;49.120;-0.200;2023-04-06T14:12:16;7.18;;;1.35;;
35909;SDS011;22004;49.120;-0.200;2023-04-06T14:14:42;16.38;;;2.15;;
35909;SDS011;22004;49.120;-0.200;2023-04-06T14:17:07;6.65;;;1.35;;
35909;SDS011;22004;49.120;-0.200;2023-04-06T14:19:33;14.30;;;2.65;;
35909;SDS011;22004;49.120;-0.200;2023-04-06T14:21:59;6.75;;;1.40;;
35909;SDS011;22004;49.120;-0.200;2023-04-06T14:24:25;9.63;;;1.55;;
35909;SDS011;22004;49.120;-0.200;2023-04-06T14:26:50;10.43;;;1.40;;
35909;SDS011;22004;49.120;-0.200;2023-04-06T14:29:15;10.90;;;1.70;;